Who's Online

We have 1 guest online

GK Weather

An error occured during parsing XML data. Please try again.

Aviation WX

[source: ADDS]
METAR
KIAD 141552Z 33007KT 10SM FEW040 FEW250 M07/M19 A3057 RMK AO2 SLP355 T10721194 =
TAF
KIAD 141438Z 1415/1518 31006KT P6SM FEW250 FM142000 01004KT P6SM SCT200 FM142300 10004KT P6SM BKN150 FM150600 16007KT 3SM -SN OVC035 =
SR / SS: 01:42 / 12:29 UTC (Washington-Dulles 2016-02-14)

JoomlaWatch Agent

Home Links
We are regularly out on the Web. When we find a great site we list it.